createdAt,value
2022-09-24T00:00:34.164Z,99.20
2022-09-24T00:01:47.229Z,99.20
2022-09-24T00:03:00.216Z,99.20
2022-09-24T00:04:10.769Z,99.20
2022-09-24T00:05:18.997Z,99.20
2022-09-24T00:06:26.318Z,99.20
2022-09-24T00:07:32.212Z,99.20
2022-09-24T00:08:37.368Z,99.60
2022-09-24T00:09:47.928Z,99.30
2022-09-24T00:10:51.925Z,99.30
2022-09-24T00:11:56.153Z,99.30
2022-09-24T00:13:01.740Z,99.40
2022-09-24T00:14:13.469Z,99.30
2022-09-24T00:15:19.578Z,99.30
2022-09-24T00:16:26.217Z,99.40
2022-09-24T00:17:30.284Z,99.50
2022-09-24T00:18:45.188Z,99.50
2022-09-24T00:19:54.049Z,99.50
2022-09-24T00:20:58.621Z,99.50
2022-09-24T00:22:07.023Z,99.50
2022-09-24T00:23:16.518Z,99.50
2022-09-24T00:24:46.362Z,99.50
2022-09-24T00:26:14.314Z,99.40
2022-09-24T00:27:21.397Z,99.50
2022-09-24T00:28:27.406Z,99.50
2022-09-24T00:29:36.463Z,99.50
2022-09-24T00:32:05.419Z,99.50
2022-09-24T00:33:08.994Z,99.60
2022-09-24T00:34:16.633Z,99.60
2022-09-24T00:35:21.523Z,99.50
2022-09-24T00:36:31.791Z,99.60
2022-09-24T00:37:37.329Z,99.60
2022-09-24T00:38:49.735Z,99.70
2022-09-24T00:40:00.636Z,99.80
2022-09-24T00:41:09.706Z,99.90
2022-09-24T00:42:26.897Z,99.90
2022-09-24T00:43:35.833Z,99.90
2022-09-24T00:45:02.075Z,99.90
2022-09-24T00:46:20.251Z,99.80
2022-09-24T00:47:35.729Z,99.80
2022-09-24T00:48:46.750Z,99.70
2022-09-24T00:49:58.168Z,99.70
2022-09-24T00:51:09.536Z,99.70
2022-09-24T00:52:14.167Z,99.70
2022-09-24T00:53:30.342Z,99.70
2022-09-24T00:54:43.590Z,99.70
2022-09-24T00:55:53.533Z,99.80
2022-09-24T00:57:04.054Z,99.80
2022-09-24T00:58:14.766Z,99.90
2022-09-24T00:59:23.353Z,99.90
2022-09-24T01:00:29.690Z,99.80
2022-09-24T01:01:34.623Z,99.90
2022-09-24T01:02:53.167Z,99.90
2022-09-24T01:04:05.907Z,99.90
2022-09-24T01:05:13.976Z,99.90
2022-09-24T01:06:18.085Z,99.80
2022-09-24T01:07:24.143Z,99.80
2022-09-24T01:08:28.994Z,99.80
2022-09-24T01:09:39.473Z,99.80
2022-09-24T01:11:09.528Z,99.80
2022-09-24T01:12:25.344Z,99.70
2022-09-24T01:13:56.244Z,99.70
2022-09-24T01:15:17.668Z,99.70
2022-09-24T01:16:29.964Z,99.80
2022-09-24T01:17:43.964Z,99.80
2022-09-24T01:18:58.980Z,99.80
2022-09-24T01:20:40.512Z,99.70
2022-09-24T01:21:50.814Z,99.40
2022-09-24T01:23:23.957Z,99.80
2022-09-24T01:24:53.104Z,99.80
2022-09-24T01:26:21.323Z,99.80
2022-09-24T01:27:48.449Z,99.80
2022-09-24T01:29:07.379Z,99.80
2022-09-24T01:30:25.767Z,99.80
2022-09-24T01:31:41.824Z,99.90
2022-09-24T01:32:55.140Z,99.90
2022-09-24T01:34:05.709Z,99.90
2022-09-24T01:35:31.510Z,99.80
2022-09-24T01:36:43.486Z,99.80
2022-09-24T01:37:54.260Z,99.80
2022-09-24T01:38:59.759Z,99.90
2022-09-24T01:40:08.032Z,99.80
2022-09-24T01:41:22.322Z,99.90
2022-09-24T01:42:35.278Z,99.80
2022-09-24T01:43:45.278Z,99.80
2022-09-24T01:44:54.923Z,99.90
2022-09-24T01:46:03.663Z,99.80
2022-09-24T01:47:12.726Z,99.70
2022-09-24T01:48:19.876Z,99.70
2022-09-24T01:49:23.918Z,99.70
2022-09-24T01:50:33.921Z,99.70
2022-09-24T01:51:45.506Z,99.60
2022-09-24T01:52:59.605Z,99.60
2022-09-24T01:54:10.260Z,99.60
2022-09-24T01:55:17.902Z,99.60
2022-09-24T01:56:31.578Z,99.60
2022-09-24T01:57:45.723Z,99.60
2022-09-24T01:58:55.831Z,99.90
2022-09-24T02:00:11.288Z,99.70
2022-09-24T02:01:32.573Z,99.70
2022-09-24T02:02:47.281Z,99.70
2022-09-24T02:04:01.475Z,99.70
2022-09-24T02:05:17.820Z,99.70
2022-09-24T02:06:33.386Z,99.70
2022-09-24T02:07:46.268Z,99.90
2022-09-24T02:08:55.478Z,99.90
2022-09-24T02:10:01.870Z,99.90
2022-09-24T02:11:20.474Z,99.90
2022-09-24T02:12:32.286Z,99.90
2022-09-24T02:13:43.949Z,99.90
2022-09-24T02:14:52.255Z,99.90
2022-09-24T02:16:07.513Z,99.90
2022-09-24T02:17:17.234Z,99.90
2022-09-24T02:18:29.146Z,99.90
2022-09-24T02:19:38.979Z,99.90
2022-09-24T02:20:46.996Z,99.90
2022-09-24T02:21:57.599Z,99.90
2022-09-24T02:23:23.842Z,99.90
2022-09-24T02:24:40.291Z,99.80
2022-09-24T02:25:49.505Z,99.90
2022-09-24T02:26:55.542Z,99.90
2022-09-24T02:28:00.246Z,99.90
2022-09-24T02:29:06.377Z,99.90
2022-09-24T02:30:14.393Z,99.90
2022-09-24T02:33:55.485Z,99.80
2022-09-24T02:35:05.417Z,99.80
2022-09-24T02:36:08.160Z,99.90
2022-09-24T02:37:14.219Z,99.90
2022-09-24T02:38:16.974Z,99.80
2022-09-24T02:39:20.778Z,99.80
2022-09-24T02:40:23.320Z,99.90
2022-09-24T02:41:28.235Z,99.80
2022-09-24T02:42:31.700Z,99.90
2022-09-24T02:43:35.924Z,99.80
2022-09-24T02:44:39.875Z,99.90
2022-09-24T02:45:42.675Z,99.80
2022-09-24T02:46:47.829Z,99.80
2022-09-24T02:47:50.877Z,99.80
2022-09-24T02:48:55.726Z,99.80
2022-09-24T02:49:58.305Z,99.90
2022-09-24T02:51:04.270Z,99.80
2022-09-24T02:52:06.780Z,99.80
2022-09-24T02:53:10.108Z,99.80
2022-09-24T02:54:13.036Z,99.80
2022-09-24T02:55:17.070Z,99.80
2022-09-24T02:56:19.383Z,99.80
2022-09-24T02:57:23.045Z,99.70
2022-09-24T02:58:25.613Z,99.80
2022-09-24T02:59:28.914Z,99.80
2022-09-24T03:00:31.507Z,99.80
2022-09-24T03:01:36.441Z,99.90
2022-09-24T03:02:38.938Z,99.90
2022-09-24T03:03:42.391Z,99.90
2022-09-24T03:04:47.458Z,99.90
2022-09-24T03:05:53.390Z,99.80
2022-09-24T03:06:55.668Z,99.70
2022-09-24T03:07:59.059Z,99.60
2022-09-24T03:09:02.639Z,99.60
2022-09-24T03:10:06.961Z,99.70
2022-09-24T03:11:15.061Z,99.70
2022-09-24T03:12:21.210Z,99.70
2022-09-24T03:13:24.526Z,99.70
2022-09-24T03:14:27.923Z,99.50
2022-09-24T03:15:30.490Z,99.60
2022-09-24T03:16:34.768Z,99.30
2022-09-24T03:17:37.324Z,99.50
2022-09-24T03:18:40.807Z,99.60
2022-09-24T03:19:44.235Z,99.60
2022-09-24T03:20:56.327Z,99.30
2022-09-24T03:21:59.869Z,99.60
2022-09-24T03:23:02.165Z,99.70
2022-09-24T03:24:05.728Z,99.80
2022-09-24T03:25:09.541Z,99.70
2022-09-24T03:26:13.690Z,99.90
2022-09-24T03:27:16.528Z,99.40
2022-09-24T03:28:20.220Z,99.80
2022-09-24T03:29:42.738Z,99.70
2022-09-24T03:31:00.812Z,99.50
2022-09-24T03:32:04.502Z,99.80
2022-09-24T03:33:07.538Z,99.80
2022-09-24T03:34:11.064Z,99.80
2022-09-24T03:35:13.784Z,99.80
2022-09-24T03:36:21.005Z,99.80
2022-09-24T03:37:23.222Z,99.80
2022-09-24T03:38:27.387Z,99.90
2022-09-24T03:39:31.237Z,99.90
2022-09-24T03:40:33.667Z,99.90
2022-09-24T03:41:37.109Z,99.90
2022-09-24T03:42:42.406Z,99.90
2022-09-24T03:43:46.513Z,99.90
2022-09-24T03:44:48.959Z,99.90
2022-09-24T03:45:52.738Z,99.90
2022-09-24T03:46:55.909Z,99.90
2022-09-24T03:47:59.341Z,99.90
2022-09-24T03:49:05.220Z,99.90
2022-09-24T03:50:11.435Z,99.90
2022-09-24T03:51:18.877Z,99.90
2022-09-24T03:52:24.089Z,99.90
2022-09-24T03:53:27.396Z,99.90
2022-09-24T03:54:29.816Z,99.90
2022-09-24T03:55:33.752Z,99.90
2022-09-24T03:56:36.158Z,99.90
2022-09-24T03:57:39.369Z,99.90
2022-09-24T03:58:42.120Z,99.90
2022-09-24T03:59:47.301Z,99.90
2022-09-24T04:00:52.669Z,99.90
2022-09-24T04:01:56.274Z,99.90
2022-09-24T04:02:58.594Z,99.90
2022-09-24T04:04:03.366Z,99.90
2022-09-24T04:05:06.216Z,99.90
2022-09-24T04:06:10.143Z,99.90
2022-09-24T04:07:12.365Z,99.90
2022-09-24T04:08:17.047Z,99.90
2022-09-24T04:09:20.466Z,99.90
2022-09-24T04:10:24.055Z,99.90
2022-09-24T04:11:27.546Z,99.90
2022-09-24T04:12:31.604Z,99.90
2022-09-24T04:13:37.187Z,99.90
2022-09-24T04:14:39.369Z,99.90
2022-09-24T04:15:42.833Z,99.90
2022-09-24T04:16:45.538Z,99.90
2022-09-24T04:17:51.665Z,99.90
2022-09-24T04:18:55.581Z,99.90
2022-09-24T04:19:59.105Z,99.90
2022-09-24T04:21:02.038Z,99.90
2022-09-24T04:22:05.429Z,99.90
2022-09-24T04:23:08.442Z,99.90
2022-09-24T04:24:14.015Z,99.90
2022-09-24T04:25:17.406Z,99.90
2022-09-24T04:26:21.568Z,99.90
2022-09-24T04:27:25.040Z,99.90
2022-09-24T04:28:28.790Z,99.90
2022-09-24T04:29:31.126Z,99.90
2022-09-24T04:30:36.449Z,99.90
2022-09-24T04:31:39.996Z,99.90
2022-09-24T04:32:43.542Z,99.90
2022-09-24T04:33:45.953Z,99.90
2022-09-24T04:34:49.849Z,99.90
2022-09-24T04:35:52.884Z,99.90
2022-09-24T04:36:56.682Z,99.90
2022-09-24T04:38:00.460Z,99.90
2022-09-24T04:39:04.419Z,99.90
2022-09-24T04:40:10.407Z,99.90
2022-09-24T04:41:16.108Z,99.90
2022-09-24T04:42:19.439Z,99.90
2022-09-24T04:43:23.115Z,99.90
2022-09-24T04:44:29.159Z,99.90
2022-09-24T04:45:32.875Z,99.90
2022-09-24T04:46:35.553Z,99.90
2022-09-24T04:47:40.826Z,99.90
2022-09-24T04:48:43.778Z,99.90
2022-09-24T04:49:47.335Z,99.90
2022-09-24T04:50:49.861Z,99.90
2022-09-24T04:51:53.208Z,99.90
2022-09-24T04:52:57.129Z,99.90
2022-09-24T04:54:02.982Z,99.90
2022-09-24T04:55:07.779Z,99.90
2022-09-24T04:56:12.127Z,99.80
2022-09-24T04:57:17.755Z,99.90
2022-09-24T04:58:21.447Z,99.80
2022-09-24T04:59:24.324Z,99.70
2022-09-24T05:00:28.204Z,99.70
2022-09-24T05:01:32.101Z,99.90
2022-09-24T05:02:34.864Z,99.90
2022-09-24T05:03:39.784Z,99.70
2022-09-24T05:04:43.752Z,99.70
2022-09-24T05:05:47.296Z,99.80
2022-09-24T05:06:49.626Z,99.90
2022-09-24T05:07:53.174Z,99.80
2022-09-24T05:08:55.624Z,99.80
2022-09-24T05:09:59.189Z,99.90
2022-09-24T05:11:03.561Z,99.90
2022-09-24T05:12:09.685Z,99.30
2022-09-24T05:13:12.276Z,99.90
2022-09-24T05:14:16.134Z,99.90
2022-09-24T05:15:19.610Z,99.90
2022-09-24T05:16:22.978Z,99.90
2022-09-24T05:17:28.245Z,99.90
2022-09-24T05:18:31.632Z,99.60
2022-09-24T05:19:34.124Z,99.90
2022-09-24T05:20:38.099Z,99.90
2022-09-24T05:21:40.387Z,99.80
2022-09-24T05:22:47.839Z,99.90
2022-09-24T05:23:50.160Z,99.90
2022-09-24T05:24:53.695Z,99.90
2022-09-24T05:26:14.986Z,99.90
2022-09-24T05:27:21.801Z,99.90
2022-09-24T05:28:25.424Z,99.90
2022-09-24T05:29:29.093Z,99.70
2022-09-24T05:30:31.565Z,99.30
2022-09-24T05:31:35.554Z,99.20
2022-09-24T05:32:41.330Z,98.60
2022-09-24T05:33:43.922Z,98.40
2022-09-24T05:34:49.148Z,97.90
2022-09-24T05:35:54.219Z,98.00
2022-09-24T05:36:58.284Z,97.30
2022-09-24T05:38:01.001Z,96.80
2022-09-24T05:39:05.403Z,96.60
2022-09-24T05:40:27.321Z,96.40
2022-09-24T05:41:30.765Z,96.00
2022-09-24T05:42:35.710Z,95.10
2022-09-24T05:43:39.249Z,94.80
2022-09-24T05:44:43.058Z,94.60
2022-09-24T05:45:46.738Z,94.10
2022-09-24T05:46:50.007Z,93.90
2022-09-24T05:47:56.001Z,93.60
2022-09-24T05:48:59.424Z,93.60
2022-09-24T05:50:01.867Z,93.30
2022-09-24T05:51:06.101Z,93.20
2022-09-24T05:52:10.182Z,92.80
2022-09-24T05:53:12.968Z,92.50
2022-09-24T05:54:16.447Z,92.70
2022-09-24T05:55:18.828Z,92.70
2022-09-24T05:56:22.319Z,92.70
2022-09-24T05:57:24.974Z,92.50
2022-09-24T05:58:30.669Z,92.40
2022-09-24T05:59:34.529Z,91.70
2022-09-24T06:00:37.610Z,91.60
2022-09-24T06:01:41.286Z,91.00
2022-09-24T06:02:43.969Z,90.70
2022-09-24T06:03:48.015Z,90.50
2022-09-24T06:04:50.591Z,90.20
2022-09-24T06:05:54.569Z,90.40
2022-09-24T06:06:57.160Z,90.30
2022-09-24T06:08:00.918Z,90.50
2022-09-24T06:09:03.788Z,90.70
2022-09-24T06:10:08.654Z,90.70
2022-09-24T06:11:13.190Z,90.60
2022-09-24T06:12:17.701Z,90.20
2022-09-24T06:13:21.531Z,90.00
2022-09-24T06:14:26.710Z,89.50
2022-09-24T06:15:31.684Z,89.90
2022-09-24T06:16:41.325Z,89.40
2022-09-24T06:17:43.891Z,89.20
2022-09-24T06:18:48.163Z,89.40
2022-09-24T06:19:51.053Z,89.50
2022-09-24T06:20:55.129Z,89.80
2022-09-24T06:21:58.016Z,89.70
2022-09-24T06:23:02.178Z,89.80
2022-09-24T06:24:09.266Z,89.70
2022-09-24T06:25:19.455Z,90.20
2022-09-24T06:26:22.901Z,90.40
2022-09-24T06:27:26.748Z,89.80
2022-09-24T06:28:31.084Z,90.00
2022-09-24T06:29:35.865Z,89.60
2022-09-24T06:30:41.440Z,88.70
2022-09-24T06:31:45.890Z,88.00
2022-09-24T06:32:48.525Z,87.80
2022-09-24T06:33:51.762Z,87.60
2022-09-24T06:34:58.377Z,87.30
2022-09-24T06:36:05.210Z,87.40
2022-09-24T06:37:07.806Z,88.00
2022-09-24T06:38:13.760Z,87.10
2022-09-24T06:39:16.992Z,87.30
2022-09-24T06:40:19.594Z,87.70
2022-09-24T06:41:24.019Z,87.70
2022-09-24T06:42:28.223Z,87.60
2022-09-24T06:43:34.049Z,87.60
2022-09-24T06:44:38.828Z,87.50
2022-09-24T06:45:43.251Z,87.60
2022-09-24T06:46:45.985Z,88.30
2022-09-24T06:47:54.284Z,88.50
2022-09-24T06:48:57.600Z,88.10
2022-09-24T06:50:00.046Z,87.90
2022-09-24T06:51:08.624Z,89.00
2022-09-24T06:52:19.844Z,88.50
2022-09-24T06:53:32.106Z,88.70
2022-09-24T06:54:42.461Z,88.80
2022-09-24T06:55:53.236Z,89.10
2022-09-24T06:57:11.744Z,89.10
2022-09-24T06:58:22.662Z,89.20
2022-09-24T06:59:35.995Z,88.50
2022-09-24T07:00:47.861Z,88.30
2022-09-24T07:01:52.715Z,88.80
2022-09-24T07:02:59.535Z,88.80
2022-09-24T07:04:05.146Z,88.50
2022-09-24T07:05:13.401Z,88.30
2022-09-24T07:06:22.368Z,89.30
2022-09-24T07:07:34.039Z,89.20
2022-09-24T07:08:44.092Z,88.20
2022-09-24T07:10:02.200Z,87.10
2022-09-24T07:11:11.904Z,86.50
2022-09-24T07:12:17.164Z,87.30
2022-09-24T07:13:26.609Z,87.40
2022-09-24T07:14:30.752Z,86.70
2022-09-24T07:15:36.317Z,86.90
2022-09-24T07:16:48.277Z,87.40
2022-09-24T07:17:54.329Z,87.20
2022-09-24T07:18:59.038Z,87.80
2022-09-24T07:20:06.156Z,87.90
2022-09-24T07:21:16.922Z,87.30
2022-09-24T07:22:20.806Z,87.60
2022-09-24T07:23:28.840Z,87.50
2022-09-24T07:24:35.440Z,86.60
2022-09-24T07:25:41.102Z,85.60
2022-09-24T07:26:48.483Z,86.00
2022-09-24T07:28:07.427Z,86.40
2022-09-24T07:29:12.747Z,85.80
2022-09-24T07:30:30.489Z,85.90
2022-09-24T07:31:42.415Z,88.10
2022-09-24T07:32:58.385Z,87.60
2022-09-24T07:34:11.359Z,87.40
2022-09-24T07:35:15.534Z,87.70
2022-09-24T07:36:24.963Z,89.00
2022-09-24T07:37:28.202Z,86.60
2022-09-24T07:38:35.699Z,85.20
2022-09-24T07:39:39.751Z,84.20
2022-09-24T07:40:49.514Z,83.90
2022-09-24T07:41:56.669Z,83.80
2022-09-24T07:43:02.494Z,83.60
2022-09-24T07:44:11.074Z,82.80
2022-09-24T07:45:19.615Z,77.90
2022-09-24T07:46:31.203Z,77.60
2022-09-24T07:47:35.822Z,77.70
2022-09-24T07:48:44.038Z,77.50
2022-09-24T07:49:50.081Z,76.90
2022-09-24T07:50:57.664Z,76.60
2022-09-24T07:52:03.050Z,76.60
2022-09-24T07:53:10.862Z,76.40
2022-09-24T07:54:17.549Z,75.00
2022-09-24T07:55:27.497Z,74.40
2022-09-24T07:56:36.261Z,74.90
2022-09-24T07:57:39.922Z,73.30
2022-09-24T07:58:46.204Z,71.00
2022-09-24T07:59:53.317Z,70.70
2022-09-24T08:01:14.735Z,71.30
2022-09-24T08:02:35.389Z,71.10
2022-09-24T08:03:49.181Z,68.50
2022-09-24T08:05:03.632Z,67.20
2022-09-24T08:06:10.227Z,65.90
2022-09-24T08:07:16.697Z,64.50
2022-09-24T08:08:29.811Z,62.60
2022-09-24T08:09:39.929Z,63.70
2022-09-24T08:10:56.048Z,64.20
2022-09-24T08:12:10.807Z,63.30
2022-09-24T08:30:09.178Z,58.50
2022-09-24T08:31:17.351Z,57.70
2022-09-24T08:32:25.126Z,56.80
2022-09-24T08:34:19.414Z,57.10
2022-09-24T08:37:12.626Z,58.30
2022-09-24T08:38:19.444Z,58.30
2022-09-24T08:39:28.394Z,58.30
2022-09-24T08:40:44.280Z,58.30
2022-09-24T08:42:02.140Z,58.80
2022-09-24T08:43:26.260Z,59.30
2022-09-24T08:45:00.336Z,65.10
2022-09-24T08:46:32.888Z,70.50
2022-09-24T08:47:46.028Z,62.20
2022-09-24T08:48:55.503Z,64.40
2022-09-24T08:50:11.256Z,62.60
2022-09-24T08:51:18.970Z,62.30
2022-09-24T08:52:34.864Z,60.90
2022-09-24T08:53:52.299Z,60.90
2022-09-24T08:55:02.555Z,60.00
2022-09-24T08:56:19.333Z,59.50
2022-09-24T08:57:23.301Z,56.40
2022-09-24T08:58:54.890Z,55.30
2022-09-24T09:00:15.034Z,56.00
2022-09-24T09:01:40.070Z,57.70
2022-09-24T09:02:43.283Z,53.70
2022-09-24T09:04:00.326Z,56.40
2022-09-24T09:05:29.512Z,57.80
2022-09-24T09:06:53.886Z,60.70
2022-09-24T09:08:02.922Z,57.70
2022-09-24T09:09:17.314Z,55.40
2022-09-24T09:10:29.989Z,54.10
2022-09-24T09:11:43.032Z,55.10
2022-09-24T09:14:42.220Z,53.10
2022-09-24T09:15:56.660Z,55.50
2022-09-24T09:17:09.829Z,53.90
2022-09-24T09:18:26.803Z,55.80
2022-09-24T09:19:34.694Z,53.60
2022-09-24T09:20:49.853Z,54.40
2022-09-24T09:22:11.909Z,52.10
2022-09-24T09:23:31.797Z,53.40
2022-09-24T09:24:48.034Z,53.30
2022-09-24T09:26:04.080Z,54.80
2022-09-24T09:27:16.341Z,53.90
2022-09-24T09:28:29.065Z,53.70
2022-09-24T09:29:48.008Z,52.00
2022-09-24T09:31:11.308Z,52.20
2022-09-24T09:32:35.193Z,52.30
2022-09-24T09:34:03.284Z,50.10
2022-09-24T09:35:23.110Z,50.90
2022-09-24T09:36:46.241Z,50.30
2022-09-24T09:38:00.886Z,53.50
2022-09-24T09:39:26.789Z,53.70
2022-09-24T09:40:39.875Z,52.40
2022-09-24T09:41:45.237Z,52.10
2022-09-24T09:42:52.413Z,52.40
2022-09-24T09:44:06.935Z,52.10
2022-09-24T09:45:28.834Z,52.20
2022-09-24T09:46:54.145Z,51.60
2022-09-24T09:48:03.323Z,53.10
2022-09-24T09:49:08.926Z,52.30
2022-09-24T09:50:26.134Z,52.70
2022-09-24T09:51:37.792Z,51.50
2022-09-24T09:52:53.224Z,51.70
2022-09-24T09:53:59.547Z,52.20
2022-09-24T09:55:20.616Z,54.50
2022-09-24T09:56:46.585Z,53.10
2022-09-24T09:58:29.209Z,53.00
2022-09-24T09:59:59.315Z,52.20
2022-09-24T10:01:35.032Z,54.10
2022-09-24T10:03:03.111Z,51.70
2022-09-24T10:04:51.106Z,53.50
2022-09-24T10:06:14.088Z,52.00
2022-09-24T10:07:34.838Z,51.50
2022-09-24T10:08:45.729Z,51.50
2022-09-24T10:10:11.327Z,52.30
2022-09-24T10:11:41.366Z,52.00
2022-09-24T10:13:17.818Z,52.60
2022-09-24T10:14:34.735Z,49.00
2022-09-24T10:15:52.445Z,50.90
2022-09-24T10:17:13.318Z,51.80
2022-09-24T10:20:19.888Z,52.00
2022-09-24T10:21:38.115Z,51.70
2022-09-24T10:23:11.550Z,50.30
2022-09-24T10:24:23.200Z,52.40
2022-09-24T10:27:04.529Z,53.00
2022-09-24T10:28:39.391Z,53.80
2022-09-24T10:30:19.409Z,53.70
2022-09-24T10:31:50.014Z,52.70
2022-09-24T10:33:35.821Z,52.90
2022-09-24T10:37:00.983Z,53.70
2022-09-24T10:38:23.710Z,51.20
2022-09-24T10:39:33.891Z,54.40
2022-09-24T10:41:08.783Z,50.40
2022-09-24T10:43:01.672Z,50.10
2022-09-24T10:44:36.879Z,50.90
2022-09-24T10:46:24.375Z,52.20
2022-09-24T10:47:42.546Z,51.30
2022-09-24T10:49:28.132Z,52.30
2022-09-24T10:51:01.329Z,52.30
2022-09-24T10:52:27.872Z,49.90
2022-09-24T10:54:13.811Z,50.00
2022-09-24T10:56:06.037Z,50.30
2022-09-24T10:59:41.299Z,50.10
2022-09-24T11:01:22.496Z,51.70
2022-09-24T11:07:36.313Z,52.70
2022-09-24T11:09:16.855Z,52.20
2022-09-24T11:11:05.294Z,52.60
2022-09-24T11:12:32.656Z,51.80
2022-09-24T11:13:52.897Z,51.50
2022-09-24T11:15:23.079Z,51.90
2022-09-24T11:17:00.129Z,51.10
2022-09-24T11:18:50.006Z,51.20
2022-09-24T11:20:36.906Z,51.90
2022-09-24T11:22:14.095Z,51.90
2022-09-24T11:24:05.569Z,52.90
2022-09-24T11:25:45.587Z,54.20
2022-09-24T11:27:17.878Z,54.30
2022-09-24T11:28:57.267Z,54.30
2022-09-24T11:30:21.564Z,55.50
2022-09-24T11:31:43.333Z,54.70
2022-09-24T11:33:13.315Z,53.90
2022-09-24T11:34:40.189Z,55.30
2022-09-24T11:36:21.661Z,51.70
2022-09-24T11:38:01.675Z,53.00
2022-09-24T11:39:28.696Z,54.60
2022-09-24T11:41:05.925Z,50.60
2022-09-24T11:42:30.003Z,49.30
2022-09-24T11:44:09.738Z,49.20
2022-09-24T11:47:45.968Z,49.20
2022-09-24T11:49:24.880Z,49.70
2022-09-24T11:50:56.166Z,52.70
2022-09-24T11:52:12.306Z,52.70
2022-09-24T11:53:29.969Z,53.20
2022-09-24T11:54:47.438Z,53.90
2022-09-24T11:56:12.276Z,54.30
2022-09-24T11:57:31.169Z,52.10
2022-09-24T11:58:43.337Z,50.80
2022-09-24T12:00:00.438Z,49.40
2022-09-24T12:01:14.263Z,50.80
2022-09-24T12:02:28.641Z,51.30
2022-09-24T12:03:41.999Z,50.50
2022-09-24T12:04:47.658Z,51.10
2022-09-24T12:06:03.710Z,49.60
2022-09-24T12:07:14.822Z,48.90
2022-09-24T12:08:28.144Z,47.90
2022-09-24T12:09:37.617Z,49.40
2022-09-24T12:10:54.404Z,48.60
2022-09-24T12:12:06.440Z,47.50
2022-09-24T12:13:19.805Z,50.80
2022-09-24T12:14:29.084Z,53.70
2022-09-24T12:15:43.323Z,51.40
2022-09-24T12:16:57.064Z,48.20
2022-09-24T12:18:08.689Z,47.50
2022-09-24T12:19:32.475Z,48.50
2022-09-24T12:20:49.529Z,48.20
2022-09-24T12:22:01.094Z,49.10
2022-09-24T12:23:13.389Z,51.70
2022-09-24T12:24:25.744Z,54.90
2022-09-24T12:25:40.589Z,51.60
2022-09-24T12:27:12.552Z,49.90
2022-09-24T12:28:41.758Z,50.00
2022-09-24T12:30:20.276Z,48.90
2022-09-24T12:31:55.539Z,49.70
2022-09-24T12:33:10.573Z,48.90
2022-09-24T12:34:28.142Z,50.00
2022-09-24T12:35:47.553Z,50.10
2022-09-24T12:37:10.256Z,49.70
2022-09-24T12:38:28.539Z,50.00
2022-09-24T12:39:41.821Z,51.50
2022-09-24T12:41:27.636Z,55.40
2022-09-24T12:42:41.868Z,51.80
2022-09-24T12:44:02.472Z,51.00
2022-09-24T12:45:16.766Z,51.20
2022-09-24T12:46:25.683Z,51.30
2022-09-24T12:47:37.415Z,51.30
2022-09-24T12:48:55.606Z,53.90
2022-09-24T12:50:07.980Z,57.90
2022-09-24T12:51:25.975Z,56.00
2022-09-24T12:52:41.748Z,55.00
2022-09-24T12:54:02.099Z,54.90
2022-09-24T12:55:21.017Z,54.70
2022-09-24T12:56:34.751Z,54.30
2022-09-24T12:57:51.135Z,56.60
2022-09-24T12:59:17.662Z,55.90
2022-09-24T13:00:42.707Z,52.00
2022-09-24T13:01:50.955Z,51.80
2022-09-24T13:03:05.585Z,51.20
2022-09-24T13:04:30.959Z,53.50
2022-09-24T13:05:48.616Z,53.60
2022-09-24T13:07:01.907Z,53.30
2022-09-24T13:08:27.209Z,52.70
2022-09-24T13:09:44.734Z,53.50
2022-09-24T13:10:57.364Z,54.90
2022-09-24T13:12:12.116Z,52.60
2022-09-24T13:13:41.463Z,52.00
2022-09-24T13:15:02.701Z,52.00
2022-09-24T13:16:19.019Z,52.00
2022-09-24T13:17:28.750Z,53.60
2022-09-24T13:18:39.516Z,52.50
2022-09-24T13:19:47.073Z,52.40
2022-09-24T13:21:08.215Z,52.60
2022-09-24T13:22:30.401Z,51.70
2022-09-24T13:23:46.149Z,51.30
2022-09-24T13:24:55.185Z,52.00
2022-09-24T13:26:06.593Z,53.20
2022-09-24T13:27:27.462Z,54.00
2022-09-24T13:28:40.221Z,54.30
2022-09-24T13:30:09.173Z,53.80
2022-09-24T13:31:26.790Z,54.50
2022-09-24T13:32:38.326Z,56.00
2022-09-24T13:33:51.408Z,56.40
2022-09-24T13:35:04.819Z,56.90
2022-09-24T13:36:17.564Z,56.10
2022-09-24T13:37:34.413Z,57.30
2022-09-24T13:38:54.672Z,57.40
2022-09-24T13:40:06.603Z,56.40
2022-09-24T13:41:29.224Z,56.70
2022-09-24T13:42:40.311Z,58.90
2022-09-24T13:43:54.392Z,58.50
2022-09-24T13:46:50.361Z,57.50
2022-09-24T13:48:02.022Z,55.20
2022-09-24T13:49:16.860Z,56.80
2022-09-24T13:50:28.358Z,59.50
2022-09-24T13:51:58.177Z,57.50
2022-09-24T13:53:08.055Z,59.50
2022-09-24T13:54:24.322Z,54.20
2022-09-24T13:55:38.738Z,53.30
2022-09-24T13:56:43.046Z,53.60
2022-09-24T13:57:51.474Z,53.60
2022-09-24T13:59:10.546Z,53.80
2022-09-24T14:00:22.003Z,53.10
2022-09-24T14:01:34.060Z,52.00
2022-09-24T14:02:43.422Z,52.20
2022-09-24T14:03:51.205Z,52.80
2022-09-24T14:04:58.818Z,52.20
2022-09-24T14:06:14.783Z,52.40
2022-09-24T14:07:24.820Z,52.60
2022-09-24T14:08:30.448Z,52.70
2022-09-24T14:09:38.103Z,52.70
2022-09-24T14:10:49.075Z,54.20
2022-09-24T14:11:58.542Z,53.10
2022-09-24T14:13:23.267Z,53.00
2022-09-24T14:14:31.717Z,53.50
2022-09-24T14:15:38.688Z,52.60
2022-09-24T14:16:48.703Z,53.40
2022-09-24T14:18:02.520Z,52.20
2022-09-24T14:19:08.262Z,52.40
2022-09-24T14:20:16.608Z,51.80
2022-09-24T14:21:35.658Z,52.20
2022-09-24T14:22:51.347Z,52.60
2022-09-24T14:24:03.983Z,52.50
2022-09-24T14:25:12.277Z,52.50
2022-09-24T14:26:30.478Z,52.40
2022-09-24T14:27:41.955Z,51.90
2022-09-24T14:28:49.612Z,52.30
2022-09-24T14:30:02.816Z,52.60
2022-09-24T14:31:15.194Z,52.80
2022-09-24T14:32:25.308Z,51.70
2022-09-24T14:33:34.456Z,52.10
2022-09-24T14:34:44.197Z,52.00
2022-09-24T14:35:57.606Z,52.70
2022-09-24T14:37:11.619Z,52.00
2022-09-24T14:38:20.842Z,51.70
2022-09-24T14:39:29.882Z,52.00
2022-09-24T14:40:44.963Z,52.10
2022-09-24T14:41:51.477Z,53.10
2022-09-24T14:42:56.414Z,52.80
2022-09-24T14:44:05.791Z,53.00
2022-09-24T14:45:21.716Z,52.90
2022-09-24T14:46:35.584Z,52.70
2022-09-24T14:47:40.156Z,53.00
2022-09-24T14:48:44.487Z,53.20
2022-09-24T14:49:51.668Z,53.10
2022-09-24T14:51:00.503Z,52.90
2022-09-24T14:52:06.517Z,53.00
2022-09-24T14:53:17.254Z,53.00
2022-09-24T14:54:32.552Z,53.20
2022-09-24T14:55:46.722Z,53.50
2022-09-24T14:56:52.865Z,53.60
2022-09-24T14:57:59.435Z,53.60
2022-09-24T14:59:02.940Z,53.70
2022-09-24T15:00:25.404Z,53.80
2022-09-24T15:01:34.908Z,53.60
2022-09-24T15:02:43.145Z,53.60
2022-09-24T15:03:47.452Z,53.70
2022-09-24T15:05:05.859Z,53.70
2022-09-24T15:06:25.099Z,53.80
2022-09-24T15:07:33.356Z,54.20
2022-09-24T15:09:26.302Z,54.40
2022-09-24T15:12:10.869Z,54.80
2022-09-24T15:13:56.442Z,55.00
2022-09-24T15:20:18.662Z,54.90
2022-09-24T15:22:09.835Z,54.50
2022-09-24T15:33:25.623Z,55.80
2022-09-24T15:39:48.145Z,55.90
2022-09-24T16:06:12.484Z,58.20
2022-09-24T16:08:08.441Z,58.50
2022-09-24T16:17:28.430Z,58.80
2022-09-24T16:25:04.108Z,59.60
2022-09-24T16:27:11.918Z,59.70
2022-09-24T16:31:50.324Z,59.90
2022-09-24T17:11:41.025Z,67.30
2022-09-24T17:22:10.032Z,71.50
2022-09-24T17:23:14.907Z,70.80
2022-09-24T17:24:22.303Z,71.10
2022-09-24T17:25:32.917Z,70.90
2022-09-24T17:26:38.895Z,71.10
2022-09-24T17:27:51.297Z,70.70
2022-09-24T17:28:58.335Z,71.50
2022-09-24T17:30:07.249Z,72.50
2022-09-24T17:31:17.023Z,73.30
2022-09-24T17:32:42.896Z,72.20
2022-09-24T17:33:57.999Z,71.80
2022-09-24T17:35:07.673Z,73.00
2022-09-24T17:36:18.318Z,74.00
2022-09-24T17:37:34.649Z,73.10
2022-09-24T17:38:42.012Z,72.60
2022-09-24T17:39:54.930Z,72.20
2022-09-24T17:41:06.160Z,72.10
2022-09-24T17:42:23.536Z,72.20
2022-09-24T17:43:27.810Z,72.50
2022-09-24T17:44:36.565Z,72.80
2022-09-24T17:45:42.786Z,72.90
2022-09-24T17:47:24.879Z,73.40
2022-09-24T17:48:46.485Z,73.30
2022-09-24T17:49:54.846Z,73.70
2022-09-24T17:51:08.315Z,74.10
2022-09-24T17:52:17.959Z,74.40
2022-09-24T17:53:40.412Z,74.30
2022-09-24T17:54:47.571Z,74.00
2022-09-24T17:55:55.765Z,74.00
2022-09-24T17:57:01.693Z,74.10
2022-09-24T17:58:06.609Z,75.10
2022-09-24T17:59:16.019Z,75.90
2022-09-24T18:00:25.250Z,76.10
2022-09-24T18:01:36.518Z,76.40
2022-09-24T18:02:46.937Z,78.50
2022-09-24T18:04:07.084Z,76.70